Time;durP1;ratioP1;P1;durP2;ratioP2;P2;SDS_P1;SDS_P2;PMS_P1;PMS_P2;Temp;Humidity;BMP_temperature;BMP_pressure;BME280_temperature;BME280_humidity;BME280_pressure;Samples;Min_cycle;Max_cycle;Signal;HPM_P1;HPM_P2
2022/04/06 00:02:12;;;;;;;6.00;4.97;;;9.20;62.20;;;9.22;47.01;94576.25;5060050;28;20457;-57
2022/04/06 00:04:40;;;;;;;13.87;5.17;;;9.20;61.40;;;9.20;47.13;94567.69;5061745;28;20875;-58
2022/04/06 00:07:07;;;;;;;11.00;5.50;;;9.20;61.30;;;9.20;47.46;94570.31;5060047;28;20454;-58
2022/04/06 00:09:39;;;;;;;5.80;4.10;;;9.20;61.80;;;9.18;47.38;94572.22;5061748;28;20474;-57
2022/04/06 00:12:10;;;;;;;9.30;5.63;;;9.20;61.40;;;9.16;47.54;94571.56;5054147;28;20447;-55
2022/04/06 00:14:37;;;;;;;9.60;4.97;;;9.20;61.70;;;9.13;47.58;94571.84;5057963;28;20469;-56
2022/04/06 00:17:07;;;;;;;9.80;4.97;;;9.10;62.00;;;9.10;47.40;94569.47;5059750;28;20463;-57
2022/04/06 00:19:35;;;;;;;8.60;5.20;;;9.10;61.30;;;9.08;46.91;94568.81;5059371;28;20490;-57
2022/04/06 00:22:03;;;;;;;5.47;4.70;;;9.10;61.20;;;9.08;47.19;94568.81;5062363;28;20845;-57
2022/04/06 00:24:30;;;;;;;7.30;3.97;;;9.10;61.40;;;9.07;47.06;94575.81;5053472;28;20491;-58
2022/04/06 00:26:57;;;;;;;14.53;4.80;;;9.10;61.10;;;9.03;47.29;94574.47;5056194;28;20963;-57
2022/04/06 00:29:25;;;;;;;7.70;4.83;;;9.10;61.10;;;9.01;47.45;94572.94;5061298;28;20455;-61
2022/04/06 00:31:52;;;;;;;4.43;3.97;;;9.00;60.60;;;8.94;46.78;94578.72;5056646;28;20483;-58
2022/04/06 00:35:28;;;;;;;6.87;5.20;;;9.00;60.70;;;8.91;47.00;94579.00;5057327;28;20448;-57
2022/04/06 00:37:08;;;;;;;5.30;3.93;;;8.90;60.90;;;8.90;46.88;94582.56;5057948;28;20901;-57
2022/04/06 00:39:35;;;;;;;6.20;4.93;;;8.90;61.10;;;8.89;47.00;94583.56;5061052;28;20479;-56
2022/04/06 00:42:02;;;;;;;5.60;4.70;;;8.90;60.20;;;8.86;46.74;94578.59;5060063;28;20477;-58
2022/04/06 00:44:34;;;;;;;13.20;5.53;;;8.90;59.70;;;8.81;46.74;94586.03;5061162;28;20552;-59
2022/04/06 00:47:02;;;;;;;10.93;6.80;;;8.90;60.10;;;8.81;46.28;94587.81;5056080;28;20457;-56
2022/04/06 00:49:31;;;;;;;12.87;6.73;;;8.80;60.00;;;8.78;46.20;94594.16;5055923;28;20478;-56
2022/04/06 00:51:59;;;;;;;11.97;6.50;;;8.80;59.50;;;8.76;46.93;94591.66;5060759;28;20454;-60
2022/04/06 00:54:26;;;;;;;12.50;6.33;;;8.80;60.10;;;8.74;46.42;94580.50;5059881;28;20850;-55
2022/04/06 00:56:54;;;;;;;17.30;6.33;;;8.80;60.10;;;8.72;47.18;94579.81;5053915;28;20455;-56
2022/04/06 00:59:21;;;;;;;9.30;6.20;;;8.80;60.10;;;8.71;47.07;94587.81;5053849;28;20491;-55
2022/04/06 01:01:52;;;;;;;17.87;6.10;;;8.70;60.30;;;8.69;46.96;94585.34;5060104;28;20479;-56
2022/04/06 01:04:19;;;;;;;11.50;6.73;;;8.70;60.30;;;8.65;46.53;94586.56;5063454;28;20783;-55
2022/04/06 01:06:49;;;;;;;14.23;6.80;;;8.70;60.00;;;8.60;46.52;94588.75;5059157;28;20456;-57
2022/04/06 01:09:16;;;;;;;17.93;7.40;;;8.60;59.90;;;8.58;47.06;94586.28;5055428;28;20459;-57
2022/04/06 01:11:45;;;;;;;14.53;7.30;;;8.60;60.00;;;8.54;46.68;94592.75;5058890;28;20471;-57
2022/04/06 01:14:13;;;;;;;15.03;7.33;;;8.60;60.30;;;8.52;46.57;94597.28;5054121;28;20456;-56
2022/04/06 01:16:40;;;;;;;12.10;7.07;;;8.50;59.80;;;8.46;47.27;94589.13;5054977;28;20463;-56
2022/04/06 01:19:07;;;;;;;11.23;6.90;;;8.50;60.00;;;8.43;47.20;94587.59;5054815;28;20464;-54
2022/04/06 01:21:35;;;;;;;11.17;6.87;;;8.50;60.40;;;8.42;47.06;94593.78;5055799;28;20588;-55
2022/04/06 01:24:04;;;;;;;11.30;7.27;;;8.40;60.60;;;8.38;46.91;94587.13;5057805;28;20487;-55
2022/04/06 01:26:31;;;;;;;10.53;6.30;;;8.40;60.70;;;8.33;46.91;94584.09;5057153;28;20478;-55
2022/04/06 01:28:58;;;;;;;16.80;6.80;;;8.40;60.00;;;8.29;47.11;94577.44;5059380;28;20455;-55
2022/04/06 01:31:25;;;;;;;14.23;7.63;;;8.30;60.20;;;8.23;46.80;94587.50;5053833;28;20644;-55
2022/04/06 01:33:53;;;;;;;10.87;6.33;;;8.30;59.80;;;8.20;46.68;94584.34;5055855;28;20898;-54
2022/04/06 01:36:20;;;;;;;11.27;7.13;;;8.20;60.10;;;8.17;47.09;94584.59;5054404;28;20482;-55
2022/04/06 01:38:47;;;;;;;19.20;6.83;;;8.20;60.70;;;8.17;48.01;94579.34;5057185;28;20796;-54
2022/04/06 01:41:16;;;;;;;10.63;7.30;;;8.20;61.60;;;8.16;47.30;94593.41;5060406;28;20517;-55
2022/04/06 01:43:43;;;;;;;11.27;7.37;;;8.20;61.50;;;8.15;47.42;94579.50;5055937;28;20459;-54
2022/04/06 01:46:10;;;;;;;11.63;7.37;;;8.20;61.80;;;8.15;47.58;94581.25;5055816;28;20479;-55
2022/04/06 01:52:11;;;;;;;14.43;7.93;;;8.20;62.10;;;8.14;47.82;94577.81;5059260;28;20455;-55
2022/04/06 01:54:09;;;;;;;11.87;7.27;;;8.10;62.00;;;8.10;47.96;94591.31;5052004;28;21064;-55
2022/04/06 01:56:38;;;;;;;16.13;7.43;;;8.10;62.50;;;8.08;48.37;94596.69;5060310;28;20451;-58
2022/04/06 01:59:06;;;;;;;15.37;7.30;;;8.10;62.80;;;8.06;48.65;94593.38;5058775;28;20467;-55
2022/04/06 02:01:34;;;;;;;16.47;6.60;;;8.10;63.00;;;8.05;47.96;94596.94;5061332;28;20443;-55
2022/04/06 02:04:06;;;;;;;13.63;6.77;;;8.10;63.50;;;8.03;48.20;94594.47;5054608;28;20553;-57
2022/04/06 02:06:34;;;;;;;10.60;6.40;;;8.10;62.90;;;8.03;48.29;94596.25;5048886;28;21137;-55
2022/04/06 02:09:01;;;;;;;14.53;7.37;;;8.10;63.20;;;8.02;48.48;94595.41;5055262;28;20560;-55
2022/04/06 02:11:30;;;;;;;10.73;7.17;;;8.00;63.60;;;8.02;48.35;94605.06;5060949;28;20479;-62
2022/04/06 02:14:05;;;;;;;16.13;7.40;;;8.00;63.70;;;8.00;49.04;94601.75;5053824;28;20503;-53
2022/04/06 02:16:33;;;;;;;16.23;7.20;;;8.00;64.10;;;7.98;48.86;94591.41;5055214;28;20460;-57
2022/04/06 02:19:00;;;;;;;10.53;7.00;;;8.00;64.10;;;7.96;48.80;94597.72;5053956;28;20485;-56
2022/04/06 02:21:27;;;;;;;12.73;8.00;;;8.00;64.50;;;7.95;48.67;94601.28;5056904;28;20490;-56
2022/04/06 02:23:55;;;;;;;10.80;7.40;;;8.00;63.80;;;7.92;49.01;94597.16;5058162;28;20862;-54
2022/04/06 02:26:22;;;;;;;13.60;6.50;;;8.00;64.10;;;7.90;49.22;94597.31;5057523;28;20565;-54
2022/04/06 02:28:49;;;;;;;12.17;7.53;;;7.90;64.20;;;7.88;48.84;94606.22;5051671;28;20455;-56
2022/04/06 02:31:18;;;;;;;20.20;7.33;;;8.00;64.40;;;7.84;49.16;94610.91;5058381;28;20997;-55
2022/04/06 02:33:45;;;;;;;14.00;7.70;;;7.90;64.70;;;7.83;49.45;94608.44;5058052;28;20506;-57
2022/04/06 02:36:12;;;;;;;11.80;7.97;;;7.90;65.80;;;7.82;49.88;94612.84;5057837;28;20865;-54
2022/04/06 02:38:40;;;;;;;13.10;6.90;;;7.90;65.90;;;7.80;49.17;94612.13;5052379;28;20876;-55
2022/04/06 02:41:07;;;;;;;14.03;8.03;;;7.90;65.70;;;7.79;49.60;94607.88;5052096;28;20554;-56
2022/04/06 02:43:34;;;;;;;20.73;6.63;;;7.90;66.00;;;7.79;49.83;94604.41;5061220;28;20577;-55
2022/04/06 02:46:02;;;;;;;15.30;8.60;;;7.80;66.00;;;7.78;49.92;94608.81;5061774;28;20560;-56
2022/04/06 02:48:31;;;;;;;23.00;7.37;;;7.80;66.10;;;7.78;49.69;94615.84;5058595;28;20467;-56
2022/04/06 02:50:58;;;;;;;11.83;7.03;;;7.80;66.00;;;7.77;49.51;94617.63;5055039;28;20490;-55
2022/04/06 02:53:25;;;;;;;13.70;7.50;;;7.80;66.10;;;7.77;49.73;94614.19;5062906;28;20505;-54
2022/04/06 02:55:52;;;;;;;12.53;7.67;;;7.80;66.90;;;7.75;50.24;94614.31;5058951;28;20490;-55
2022/04/06 02:58:20;;;;;;;11.70;7.40;;;7.80;67.20;;;7.75;49.81;94623.97;5060265;28;20561;-56
2022/04/06 03:00:47;;;;;;;12.47;7.97;;;7.80;67.00;;;7.73;50.19;94618.84;5063272;28;20479;-56
2022/04/06 03:03:14;;;;;;;14.27;7.53;;;7.80;67.50;;;7.72;50.37;94622.41;5059080;28;20463;-58
2022/04/06 03:05:43;;;;;;;11.73;7.27;;;7.80;67.30;;;7.70;50.15;94624.34;5059425;28;20506;-54
2022/04/06 03:08:10;;;;;;;15.70;8.57;;;7.80;66.60;;;7.69;49.73;94625.28;5061195;28;20464;-56
2022/04/06 03:10:38;;;;;;;14.10;7.40;;;7.80;66.70;;;7.68;50.17;94628.84;5058413;28;20478;-55
2022/04/06 03:13:05;;;;;;;13.30;7.60;;;7.70;67.20;;;7.67;50.43;94633.28;5062551;28;20523;-55
2022/04/06 03:15:33;;;;;;;17.70;9.30;;;7.70;67.30;;;7.65;49.90;94626.50;5059529;28;20852;-55
2022/04/06 03:18:00;;;;;;;19.37;10.17;;;7.70;67.30;;;7.63;50.72;94626.63;5060454;28;20470;-55
2022/04/06 03:20:27;;;;;;;35.60;17.70;;;7.70;67.40;;;7.63;50.06;94633.66;5061512;28;20528;-57
2022/04/06 03:22:56;;;;;;;63.20;31.20;;;7.70;66.50;;;7.60;49.80;94633.91;5058793;28;20554;-57
2022/04/06 03:25:23;;;;;;;28.83;14.57;;;7.70;66.50;;;7.54;49.36;94638.69;5055646;28;20487;-54
2022/04/06 03:27:50;;;;;;;19.00;10.77;;;7.60;64.50;;;7.49;48.68;94640.84;5062135;28;20928;-56
2022/04/06 03:30:18;;;;;;;15.43;8.50;;;7.60;64.10;;;7.40;48.17;94641.59;5060811;28;20559;-56
2022/04/06 03:32:45;;;;;;;19.33;9.00;;;7.50;62.60;;;7.32;48.71;94649.25;5061330;28;20566;-55
2022/04/06 03:35:13;;;;;;;18.83;11.03;;;7.40;63.10;;;7.25;48.84;94641.09;5055745;28;20482;-56
2022/04/06 03:37:41;;;;;;;26.77;14.60;;;7.30;63.60;;;7.22;49.21;94651.81;5054614;28;20451;-55
2022/04/06 03:40:11;;;;;;;20.90;11.00;;;7.30;64.00;;;7.20;48.67;94655.50;5056797;28;20466;-57
2022/04/06 03:42:38;;;;;;;16.83;9.80;;;7.30;63.80;;;7.16;49.02;94658.34;5059809;28;20439;-54
2022/04/06 03:45:07;;;;;;;13.80;8.30;;;7.20;63.40;;;7.13;48.50;94656.00;5058175;28;20509;-56
2022/04/06 03:47:35;;;;;;;14.50;7.93;;;7.20;63.50;;;7.12;48.40;94661.34;5052385;28;20467;-57
2022/04/06 03:50:03;;;;;;;11.90;7.90;;;7.20;63.40;;;7.09;48.72;94657.19;5055497;28;20844;-57
2022/04/06 03:52:30;;;;;;;9.27;6.63;;;7.20;63.40;;;7.09;48.76;94662.41;5061425;28;20463;-56
2022/04/06 03:54:58;;;;;;;11.37;6.37;;;7.20;63.50;;;7.08;48.38;94660.78;5062242;28;20857;-55
2022/04/06 03:57:26;;;;;;;8.93;5.57;;;7.10;63.20;;;7.06;48.56;94661.84;5059888;28;20473;-55
2022/04/06 03:59:54;;;;;;;9.70;5.70;;;7.10;62.90;;;7.01;48.15;94659.59;5061046;28;20475;-55
2022/04/06 04:02:21;;;;;;;15.53;5.57;;;7.10;62.80;;;6.96;48.55;94661.75;5060038;28;20876;-54
2022/04/06 04:04:48;;;;;;;10.70;6.63;;;7.00;62.70;;;6.94;48.17;94667.09;5058500;28;20517;-56
2022/04/06 04:07:21;;;;;;;22.83;7.53;;;7.00;63.00;;;6.93;48.30;94667.22;5058751;28;20455;-53
2022/04/06 04:09:49;;;;;;;12.53;6.60;;;7.00;63.30;;;6.92;48.64;94665.56;5051493;28;20582;-56
2022/04/06 04:12:16;;;;;;;10.40;6.60;;;7.00;63.40;;;6.90;48.43;94678.75;5055521;28;20531;-54
2022/04/06 04:14:45;;;;;;;19.33;6.57;;;7.00;63.60;;;6.91;49.03;94684.81;5061144;28;20471;-54
2022/04/06 04:17:12;;;;;;;7.83;6.20;;;7.00;63.90;;;6.91;49.41;94680.44;5058257;28;20448;-57
2022/04/06 04:19:39;;;;;;;8.73;6.00;;;7.00;64.00;;;6.92;48.63;94673.41;5055989;28;20842;-57
2022/04/06 04:22:07;;;;;;;6.73;4.90;;;7.00;64.10;;;6.93;48.71;94675.06;5058500;28;20457;-55
2022/04/06 04:24:34;;;;;;;19.43;6.00;;;7.00;64.10;;;6.93;48.99;94678.50;5055131;28;20479;-54
2022/04/06 04:27:02;;;;;;;16.70;7.20;;;7.00;64.20;;;6.93;48.45;94698.59;5056934;28;20474;-55
2022/04/06 04:29:29;;;;;;;14.57;6.90;;;7.00;64.20;;;6.95;48.52;94696.69;5061257;28;20536;-55
2022/04/06 04:31:58;;;;;;;9.67;6.47;;;7.00;64.40;;;6.96;48.93;94698.38;5059678;28;20451;-57
2022/04/06 04:34:25;;;;;;;8.90;5.87;;;7.00;64.40;;;6.96;49.12;94698.38;5051464;28;20459;-57
2022/04/06 04:36:53;;;;;;;11.20;6.60;;;7.00;64.50;;;6.98;49.26;94699.06;5058192;28;20468;-56
2022/04/06 04:39:20;;;;;;;15.27;6.40;;;7.00;64.40;;;7.00;49.50;94694.53;5056949;28;20805;-56
2022/04/06 04:41:47;;;;;;;12.53;6.57;;;7.10;65.00;;;7.14;48.92;94696.03;5061042;28;20454;-57
2022/04/06 04:44:14;;;;;;;18.63;7.20;;;7.10;65.30;;;7.32;48.93;94709.44;5051005;28;20448;-56
2022/04/06 04:46:42;;;;;;;18.37;6.40;;;7.30;64.80;;;7.42;48.31;94705.13;5052272;28;20928;-55
2022/04/06 04:49:10;;;;;;;19.03;7.23;;;7.40;64.80;;;7.48;48.05;94703.78;5055079;28;20455;-55
2022/04/06 04:51:38;;;;;;;17.53;7.37;;;7.50;63.60;;;7.63;48.54;94712.19;5058189;28;20451;-56
2022/04/06 04:54:05;;;;;;;15.60;6.73;;;7.60;63.10;;;7.77;47.91;94718.91;5056660;28;20502;-56
2022/04/06 04:56:33;;;;;;;21.33;6.20;;;7.80;62.80;;;7.82;47.41;94714.94;5054024;28;20458;-55
2022/04/06 04:59:00;;;;;;;24.80;7.33;;;7.90;61.80;;;7.83;47.30;94723.63;5055642;28;20478;-57
2022/04/06 05:01:27;;;;;;;18.13;8.03;;;7.90;61.80;;;7.81;47.60;94726.38;5058016;28;20489;-54
2022/04/06 05:03:55;;;;;;;17.00;7.30;;;7.90;61.60;;;7.79;47.39;94738.78;5060359;28;20812;-55
2022/04/06 05:06:23;;;;;;;14.90;8.10;;;7.90;61.50;;;7.77;47.73;94734.59;5056870;28;20583;-55
2022/04/06 05:08:51;;;;;;;15.23;7.37;;;7.90;61.80;;;7.77;47.22;94738.03;5049705;28;20455;-56
2022/04/06 05:11:18;;;;;;;19.20;6.60;;;7.80;61.70;;;7.78;47.90;94736.28;5054971;28;20467;-55
2022/04/06 05:13:45;;;;;;;18.17;7.20;;;7.80;61.70;;;7.81;47.71;94741.25;5056910;28;20458;-55
2022/04/06 05:16:13;;;;;;;21.90;7.07;;;7.90;62.10;;;7.84;47.91;94747.06;5054337;28;20476;-55
2022/04/06 05:18:40;;;;;;;12.53;7.70;;;7.90;62.50;;;7.89;48.38;94746.69;5059950;28;20554;-56
2022/04/06 05:21:07;;;;;;;18.13;7.60;;;7.90;62.60;;;7.90;47.78;94746.56;5050172;28;20470;-55
2022/04/06 05:23:36;;;;;;;15.33;8.30;;;8.00;62.60;;;7.94;47.78;94752.38;5056584;28;20981;-53
2022/04/06 05:26:04;;;;;;;9.93;7.33;;;8.00;62.40;;;7.96;47.95;94752.25;5054305;28;21161;-58
2022/04/06 05:28:31;;;;;;;17.37;9.27;;;8.00;62.70;;;7.98;48.02;94758.16;5053128;28;20463;-56
2022/04/06 05:30:58;;;;;;;22.70;11.43;;;8.00;62.70;;;8.02;48.34;94762.22;5055816;28;20483;-56
2022/04/06 05:33:25;;;;;;;23.43;10.40;;;8.00;63.10;;;8.06;48.14;94766.25;5053711;28;20475;-55
2022/04/06 05:35:53;;;;;;;22.80;12.33;;;8.10;63.50;;;8.12;48.48;94755.25;5058046;28;20813;-55
2022/04/06 05:38:20;;;;;;;20.20;11.17;;;8.10;63.30;;;8.21;48.55;94759.72;5055211;28;20824;-56
2022/04/06 05:40:49;;;;;;;24.57;10.60;;;8.20;64.30;;;8.29;48.18;94756.47;5050055;28;20776;-54
2022/04/06 05:43:16;;;;;;;17.80;11.00;;;8.30;64.30;;;8.46;48.00;94767.34;5056890;28;20514;-57
2022/04/06 05:45:43;;;;;;;24.63;10.67;;;8.40;63.80;;;8.63;48.02;94768.53;5059749;28;20602;-54
2022/04/06 05:48:11;;;;;;;19.07;9.90;;;8.50;63.50;;;8.82;47.67;94765.19;5058341;28;20512;-57
2022/04/06 05:50:39;;;;;;;15.93;9.83;;;8.70;63.50;;;8.99;47.57;94767.19;5056338;28;20483;-56
2022/04/06 05:53:07;;;;;;;29.43;11.30;;;8.90;63.70;;;9.19;47.26;94767.25;5054083;28;20963;-56
2022/04/06 05:55:34;;;;;;;21.57;10.30;;;9.10;63.00;;;9.38;47.02;94769.09;5052548;28;20983;-55
2022/04/06 05:58:02;;;;;;;18.33;10.70;;;9.30;62.70;;;9.58;46.73;94770.78;5053976;28;20815;-56
2022/04/06 06:00:30;;;;;;;27.27;11.73;;;9.40;62.00;;;9.79;46.90;94773.28;5056065;28;20469;-56
2022/04/06 06:02:57;;;;;;;19.43;11.10;;;9.70;61.70;;;10.01;46.54;94779.25;5052942;28;20463;-53
2022/04/06 06:05:24;;;;;;;19.00;10.73;;;9.90;61.40;;;10.19;46.12;94769.69;5049170;28;21029;-55
2022/04/06 06:07:52;;;;;;;37.33;12.17;;;10.10;59.70;;;10.46;46.04;94775.22;5055705;28;20444;-60
2022/04/06 06:10:20;;;;;;;17.13;10.83;;;10.30;59.40;;;10.69;45.72;94776.53;5058132;28;20492;-53
2022/04/06 06:12:48;;;;;;;19.13;11.33;;;10.50;59.10;;;10.90;45.42;94776.31;5053997;28;20452;-57
2022/04/06 06:15:16;;;;;;;20.27;11.63;;;10.70;58.70;;;11.12;45.19;94774.31;5052026;28;20891;-56
2022/04/06 06:17:44;;;;;;;21.93;11.03;;;10.90;58.20;;;11.34;44.91;94773.09;5054358;28;20448;-54
2022/04/06 06:20:12;;;;;;;25.80;13.50;;;11.20;58.10;;;11.59;44.79;94778.66;5055468;28;20478;-55
2022/04/06 06:22:39;;;;;;;26.07;11.77;;;11.40;58.10;;;11.83;44.46;94770.16;5058050;28;20446;-56
2022/04/06 06:25:08;;;;;;;20.50;10.60;;;11.60;57.40;;;12.08;44.08;94770.41;5060527;28;20847;-56
2022/04/06 06:27:38;;;;;;;17.43;10.70;;;11.90;57.00;;;12.23;44.04;94765.44;5054280;28;20458;-55
2022/04/06 06:30:07;;;;;;;20.80;9.70;;;12.00;56.80;;;12.40;43.89;94758.47;5058088;28;20974;-56
2022/04/06 06:32:35;;;;;;;15.30;8.10;;;12.20;57.00;;;12.60;43.66;94767.84;5056373;28;20965;-56
2022/04/06 06:35:03;;;;;;;22.13;11.13;;;12.40;56.50;;;12.82;43.35;94760.41;5058166;28;20468;-56
2022/04/06 06:37:30;;;;;;;19.27;9.47;;;12.60;55.90;;;13.04;43.52;94769.56;5050217;28;20459;-56
2022/04/06 06:39:57;;;;;;;21.63;10.10;;;12.80;56.40;;;13.25;43.07;94770.00;5049551;28;20557;-56
2022/04/06 06:42:25;;;;;;;16.60;8.60;;;13.00;55.70;;;13.48;42.87;94763.34;5052733;28;20989;-55
2022/04/06 06:44:52;;;;;;;24.73;9.77;;;13.20;55.50;;;13.75;42.68;94762.28;5056296;28;20818;-56
2022/04/06 06:47:19;;;;;;;26.33;10.17;;;13.40;54.80;;;14.02;42.42;94760.31;5052635;28;20833;-55
2022/04/06 06:49:48;;;;;;;31.27;11.83;;;13.70;54.80;;;14.23;42.09;94755.38;5049883;28;20801;-57
2022/04/06 06:52:15;;;;;;;18.40;9.13;;;13.90;54.30;;;14.41;41.82;94751.75;5051619;28;20455;-57
2022/04/06 06:54:42;;;;;;;22.00;10.23;;;14.10;53.80;;;14.60;40.86;94756.72;5057216;28;20471;-56
2022/04/06 06:57:11;;;;;;;16.93;9.70;;;14.30;52.60;;;14.84;40.96;94757.66;5054646;28;20570;-58
2022/04/06 06:59:38;;;;;;;22.10;10.20;;;14.50;52.50;;;15.07;40.89;94760.44;5061922;28;20495;-56
2022/04/06 07:02:06;;;;;;;19.87;11.23;;;14.80;52.80;;;15.27;39.60;94762.69;5053442;28;20450;-54
2022/04/06 07:04:33;;;;;;;24.83;10.87;;;15.00;50.60;;;15.46;39.66;94761.44;5059858;28;20513;-57
2022/04/06 07:07:02;;;;;;;28.73;11.47;;;15.20;50.90;;;15.72;39.99;94763.81;5056786;28;20494;-56
2022/04/06 07:09:29;;;;;;;25.80;12.13;;;15.40;51.60;;;16.00;39.56;94764.16;5052750;28;20475;-56
2022/04/06 07:11:56;;;;;;;22.13;10.13;;;15.60;51.00;;;16.28;38.73;94756.50;5049118;28;20907;-56
2022/04/06 07:14:24;;;;;;;23.13;11.40;;;15.90;49.70;;;16.49;38.83;94755.81;5050204;28;20858;-57
2022/04/06 07:16:51;;;;;;;24.70;11.13;;;16.20;49.70;;;16.71;38.01;94753.31;5051076;28;20458;-56
2022/04/06 07:19:18;;;;;;;18.67;9.43;;;16.40;48.60;;;16.94;38.45;94757.78;5054864;28;20447;-57
2022/04/06 07:21:46;;;;;;;19.80;10.57;;;16.60;49.40;;;17.03;38.09;94749.53;5053887;28;20469;-56
2022/04/06 07:24:15;;;;;;;15.83;10.20;;;16.70;49.00;;;17.07;37.43;94752.66;5056555;28;20546;-56
2022/04/06 07:26:42;;;;;;;32.63;9.30;;;16.80;48.50;;;17.34;37.65;94761.00;5060444;28;20490;-57
2022/04/06 07:29:11;;;;;;;20.10;7.87;;;16.90;48.30;;;17.67;37.08;94760.59;5055513;28;20444;-56
2022/04/06 07:31:39;;;;;;;28.30;8.47;;;17.30;48.00;;;18.04;37.11;94753.47;5058141;28;20457;-57
2022/04/06 07:34:06;;;;;;;20.00;7.10;;;17.60;47.30;;;18.40;37.04;94756.06;5060005;28;20487;-57
2022/04/06 07:36:34;;;;;;;18.53;7.73;;;18.00;47.50;;;18.81;36.31;94757.22;5056230;28;20504;-59
2022/04/06 07:39:02;;;;;;;24.13;9.57;;;18.40;47.30;;;19.13;36.34;94750.50;5054687;28;20483;-57
2022/04/06 07:41:31;;;;;;;22.97;9.73;;;18.70;46.90;;;19.23;35.07;94758.16;5059739;28;20803;-56
2022/04/06 07:43:58;;;;;;;17.93;9.67;;;18.90;45.60;;;19.38;34.92;94760.69;5058273;28;20452;-57
2022/04/06 07:46:25;;;;;;;19.97;8.13;;;19.00;45.60;;;19.64;35.35;94762.69;5061979;28;20490;-57
2022/04/06 07:48:52;;;;;;;30.33;9.20;;;19.20;45.60;;;20.09;34.75;94764.88;5050663;28;20870;-57
2022/04/06 07:51:20;;;;;;;15.97;8.80;;;19.50;45.30;;;20.46;34.21;94761.88;5059747;28;20928;-56
2022/04/06 07:53:47;;;;;;;13.97;8.73;;;20.00;44.40;;;20.87;34.37;94750.22;5060383;28;20467;-55
2022/04/06 07:56:14;;;;;;;31.00;9.10;;;20.40;44.50;;;21.32;33.61;94747.69;5054547;28;20854;-56
2022/04/06 07:58:43;;;;;;;16.00;8.50;;;20.90;44.30;;;21.87;32.92;94751.84;5051251;28;20457;-56
2022/04/06 08:01:10;;;;;;;22.63;9.47;;;21.50;43.40;;;22.30;32.91;94753.88;5053573;28;21037;-57
2022/04/06 08:03:38;;;;;;;22.70;10.50;;;22.10;42.90;;;22.70;29.43;94750.97;5059896;28;20470;-57
2022/04/06 08:06:05;;;;;;;20.43;11.13;;;22.60;39.00;;;22.99;31.81;94743.28;5058263;28;20486;-56
2022/04/06 08:08:33;;;;;;;23.47;9.47;;;22.90;41.10;;;23.31;31.23;94744.03;5050940;28;20585;-55
2022/04/06 08:11:01;;;;;;;14.60;8.70;;;23.20;40.50;;;23.65;31.32;94743.66;5057385;28;20469;-56
2022/04/06 08:13:28;;;;;;;22.70;10.33;;;23.50;40.80;;;23.93;31.33;94759.25;5059628;28;20861;-56
2022/04/06 08:15:59;;;;;;;15.07;9.07;;;23.80;40.30;;;24.25;30.30;94743.75;5059208;28;20475;-57
2022/04/06 08:18:26;;;;;;;23.27;9.77;;;24.10;39.80;;;24.57;30.35;94746.22;5061351;28;20759;-57
2022/04/06 08:20:54;;;;;;;23.70;9.90;;;24.50;39.20;;;24.59;28.91;94746.81;5053022;28;20479;-57
2022/04/06 08:23:21;;;;;;;31.77;10.87;;;24.60;37.70;;;24.54;29.12;94746.66;5056712;28;20451;-56
2022/04/06 08:25:49;;;;;;;16.47;9.53;;;24.70;37.40;;;24.59;29.56;94744.13;5058083;28;20582;-56
2022/04/06 08:28:18;;;;;;;21.30;9.60;;;24.80;36.90;;;24.78;29.67;94741.34;5056341;28;20749;-57
2022/04/06 08:30:47;;;;;;;16.37;9.17;;;25.00;37.70;;;25.06;28.58;94741.47;5058491;28;20472;-57
2022/04/06 08:33:16;;;;;;;18.00;9.90;;;25.20;37.10;;;25.34;28.58;94742.66;5062634;28;20809;-55
2022/04/06 08:35:43;;;;;;;11.43;9.27;;;25.60;36.80;;;25.58;28.32;94743.47;5050836;28;20468;-55
2022/04/06 08:38:13;;;;;;;42.17;11.80;;;25.80;35.40;;;25.71;27.82;94731.59;5060015;28;20761;-56
2022/04/06 08:40:42;;;;;;;21.13;10.30;;;26.00;35.70;;;25.82;28.04;94734.53;5056989;28;20476;-57
2022/04/06 08:43:10;;;;;;;27.80;11.37;;;26.10;35.50;;;25.90;25.74;94732.28;5051898;28;20553;-56
2022/04/06 08:45:38;;;;;;;21.33;9.30;;;26.10;33.00;;;25.92;27.73;94730.16;5058561;28;20479;-56
2022/04/06 08:48:07;;;;;;;23.17;9.13;;;26.10;35.20;;;25.96;27.92;94727.78;5056480;28;20486;-57
2022/04/06 08:50:37;;;;;;;17.70;9.67;;;26.00;35.10;;;25.98;25.73;94728.41;5057925;28;20497;-56
2022/04/06 08:53:06;;;;;;;22.33;9.23;;;26.00;32.90;;;25.94;27.19;94721.84;5056493;28;20830;-56
2022/04/06 08:55:33;;;;;;;23.67;9.57;;;25.90;34.80;;;25.91;27.19;94716.91;5048696;28;20475;-56
2022/04/06 08:58:01;;;;;;;33.40;10.03;;;25.80;34.70;;;25.90;27.28;94713.41;5057267;28;20475;-56
2022/04/06 09:00:29;;;;;;;16.00;8.87;;;25.70;34.90;;;25.98;26.95;94720.34;5057268;28;20549;-55
2022/04/06 09:02:56;;;;;;;19.70;8.83;;;25.70;34.30;;;26.03;26.97;94712.34;5056264;28;20451;-59
2022/04/06 09:05:25;;;;;;;17.37;9.17;;;25.70;34.30;;;26.11;27.19;94714.63;5059366;28;20481;-57
2022/04/06 09:07:54;;;;;;;20.20;9.10;;;25.80;35.10;;;26.06;27.00;94714.56;5050327;28;20545;-57
2022/04/06 09:10:33;;;;;;;12.43;7.47;;;25.70;34.70;;;25.88;26.33;94712.00;5053720;28;20640;-57
2022/04/06 09:13:18;;;;;;;16.50;7.73;;;25.60;33.70;;;25.63;26.35;94705.03;5059678;28;20451;-57
2022/04/06 09:15:45;;;;;;;23.43;7.90;;;25.30;34.00;;;25.47;26.75;94698.53;5053137;28;20948;-57
2022/04/06 09:18:12;;;;;;;10.20;6.50;;;25.10;33.60;;;25.45;26.66;94702.50;5056733;28;20811;-58
2022/04/06 09:20:40;;;;;;;10.40;5.57;;;25.10;34.10;;;25.55;26.05;94702.72;5053275;28;20478;-57
2022/04/06 09:23:09;;;;;;;11.13;5.83;;;25.10;33.50;;;25.67;26.10;94698.13;5054702;28;20450;-58
2022/04/06 09:25:37;;;;;;;6.97;5.43;;;25.20;33.30;;;25.71;23.77;94680.41;5058631;28;20545;-57
2022/04/06 09:28:09;;;;;;;8.93;5.13;;;25.30;30.00;;;25.64;23.72;94689.69;5049523;28;21053;-55
2022/04/06 09:30:40;;;;;;;12.00;5.73;;;25.20;30.40;;;25.52;23.66;94687.06;5051277;28;20476;-57
2022/04/06 09:33:14;;;;;;;9.00;4.80;;;25.10;30.00;;;25.45;22.88;94681.78;5057163;28;20651;-55
2022/04/06 09:35:43;;;;;;;7.43;4.13;;;25.10;30.10;;;25.32;23.71;94674.78;5057469;28;20583;-57
2022/04/06 09:38:13;;;;;;;8.10;4.83;;;25.00;30.00;;;25.20;23.89;94669.38;5054773;28;20454;-57
2022/04/06 09:40:40;;;;;;;4.10;3.70;;;24.90;30.30;;;25.21;24.83;94675.59;5056789;28;20466;-57
2022/04/06 09:43:09;;;;;;;6.20;3.60;;;24.80;30.50;;;25.24;21.63;94675.13;5053039;28;20486;-56
2022/04/06 09:48:21;;;;;;;5.17;3.87;;;24.80;30.10;;;25.29;24.56;94671.75;5056599;28;20513;-57
2022/04/06 09:50:56;;;;;;;4.20;3.77;;;24.80;30.20;;;25.43;23.68;94662.34;5058272;28;20474;-56
2022/04/06 09:53:27;;;;;;;8.47;3.70;;;24.90;29.80;;;25.39;23.68;94656.63;5058225;28;20477;-57
2022/04/06 09:55:57;;;;;;;9.43;4.50;;;24.90;29.70;;;25.36;23.66;94651.72;5057404;28;20521;-57
2022/04/06 09:58:24;;;;;;;4.43;3.27;;;24.90;30.00;;;25.40;23.75;94646.69;5058638;28;20446;-56
2022/04/06 10:00:53;;;;;;;2.53;2.30;;;24.90;30.30;;;25.32;24.12;94645.16;5056904;28;20471;-55
2022/04/06 10:03:21;;;;;;;1.63;1.53;;;24.90;30.30;;;25.18;23.61;94646.47;5052894;28;20443;-57
2022/04/06 10:05:50;;;;;;;2.40;2.20;;;24.90;29.40;;;25.06;23.81;94643.78;5058932;28;20557;-54
2022/04/06 10:08:19;;;;;;;4.70;2.53;;;24.70;30.10;;;24.95;23.73;94637.34;5056719;28;20544;-56
2022/04/06 10:10:50;;;;;;;6.60;2.93;;;24.60;30.00;;;25.00;23.60;94636.66;5058635;28;21223;-56
2022/04/06 10:13:18;;;;;;;8.77;2.73;;;24.60;30.00;;;25.11;24.33;94630.41;5056442;28;20530;-57
2022/04/06 10:15:45;;;;;;;8.17;3.30;;;24.70;30.90;;;25.24;24.09;94621.28;5055632;28;20456;-56
2022/04/06 10:18:12;;;;;;;8.53;3.20;;;24.80;30.20;;;25.35;24.97;94616.97;5053588;28;20473;-56
2022/04/06 10:20:44;;;;;;;3.63;1.93;;;24.90;30.90;;;25.37;23.53;94617.53;5057054;28;20477;-56
2022/04/06 10:23:18;;;;;;;2.77;2.57;;;24.90;30.20;;;25.28;23.32;94616.25;5056193;28;20438;-56
2022/04/06 10:25:52;;;;;;;6.80;3.40;;;24.90;30.30;;;25.20;23.76;94610.16;5054389;28;20578;-57
2022/04/06 10:28:19;;;;;;;9.00;2.60;;;24.80;30.20;;;25.14;24.17;94605.72;5053906;28;20494;-59
2022/04/06 10:31:14;;;;;;;6.03;2.87;;;24.70;30.70;;;25.15;23.57;94602.00;5053929;28;20684;-58